RJOA(METAR)
05/24 14:00
METAR RJOA 240500Z 20007KT 160V260 9999 FEW040 27/07 Q1013 RMK
1CU040 A2994=
戻る
トップページへ戻る
IMOC Co,.Ltd.